createdAt,value
2019-01-30T00:00:31.665Z,0.20
2019-01-30T00:02:59.285Z,0.11
2019-01-30T00:05:26.576Z,0.17
2019-01-30T00:07:54.004Z,0.14
2019-01-30T00:10:24.117Z,0.01
2019-01-30T00:12:51.564Z,0.04
2019-01-30T00:15:18.944Z,0.12
2019-01-30T00:17:46.343Z,0.05
2019-01-30T00:20:13.713Z,0.20
2019-01-30T00:22:41.238Z,-0.01
2019-01-30T00:25:08.888Z,0.00
2019-01-30T00:27:36.182Z,0.03
2019-01-30T00:30:07.176Z,0.03
2019-01-30T00:32:34.716Z,0.05
2019-01-30T00:35:01.940Z,-0.11
2019-01-30T00:37:32.016Z,0.03
2019-01-30T00:39:59.961Z,-0.05
2019-01-30T00:42:28.690Z,-0.04
2019-01-30T00:44:56.472Z,-0.09
2019-01-30T00:47:24.276Z,-0.03
2019-01-30T00:49:52.036Z,0.03
2019-01-30T00:52:19.748Z,0.22
2019-01-30T00:54:47.922Z,0.08
2019-01-30T00:57:15.438Z,0.09
2019-01-30T00:59:42.942Z,0.05
2019-01-30T01:02:10.436Z,0.07
2019-01-30T01:04:37.815Z,0.16
2019-01-30T01:07:05.190Z,0.11
2019-01-30T01:09:32.647Z,0.06
2019-01-30T01:11:59.664Z,0.13
2019-01-30T01:14:26.610Z,0.05
2019-01-30T01:16:53.635Z,-0.02
2019-01-30T01:19:20.553Z,0.00
2019-01-30T01:21:47.511Z,0.05
2019-01-30T01:24:14.441Z,-0.01
2019-01-30T01:26:41.465Z,-0.03
2019-01-30T01:29:08.411Z,-0.02
2019-01-30T01:31:35.392Z,-0.10
2019-01-30T01:34:03.017Z,-0.22
2019-01-30T01:36:30.027Z,-0.16
2019-01-30T01:38:56.982Z,-0.08
2019-01-30T01:41:23.912Z,0.01
2019-01-30T01:43:50.873Z,-0.22
2019-01-30T01:46:17.822Z,-0.23
2019-01-30T01:48:44.702Z,-0.19
2019-01-30T01:51:11.648Z,-0.25
2019-01-30T01:53:38.577Z,-0.22
2019-01-30T01:56:05.541Z,-0.13
2019-01-30T01:58:32.509Z,-0.20
2019-01-30T02:00:59.430Z,-0.13
2019-01-30T02:03:26.395Z,-0.16
2019-01-30T02:05:53.404Z,-0.20
2019-01-30T02:08:20.374Z,-0.19
2019-01-30T02:10:47.337Z,-0.19
2019-01-30T02:13:14.306Z,-0.16
2019-01-30T02:15:41.215Z,-0.17
2019-01-30T02:18:08.570Z,-0.24
2019-01-30T02:20:35.581Z,-0.23
2019-01-30T02:23:02.579Z,-0.23
2019-01-30T02:25:29.499Z,-0.19
2019-01-30T02:27:56.457Z,-0.13
2019-01-30T02:30:25.431Z,-0.11
2019-01-30T02:32:52.627Z,-0.18
2019-01-30T02:35:19.719Z,-0.26
2019-01-30T02:37:46.649Z,-0.19
2019-01-30T02:40:15.371Z,-0.12
2019-01-30T02:42:42.461Z,-0.21
2019-01-30T02:45:10.982Z,-0.19
2019-01-30T02:47:37.944Z,-0.26
2019-01-30T02:50:07.654Z,-0.15
2019-01-30T02:52:34.612Z,-0.23
2019-01-30T02:55:01.537Z,-0.07
2019-01-30T02:57:28.490Z,-0.16
2019-01-30T02:59:55.399Z,-0.10
2019-01-30T03:02:22.405Z,-0.09
2019-01-30T03:04:49.465Z,-0.11
2019-01-30T03:07:16.397Z,-0.22
2019-01-30T03:09:43.407Z,-0.17
2019-01-30T03:12:10.315Z,-0.20
2019-01-30T03:14:37.309Z,-0.31
2019-01-30T03:17:04.234Z,-0.23
2019-01-30T03:19:31.240Z,-0.29
2019-01-30T03:22:09.544Z,-0.28
2019-01-30T03:24:36.473Z,-0.22
2019-01-30T03:27:03.498Z,-0.37
2019-01-30T03:29:30.430Z,-0.43
2019-01-30T03:31:57.333Z,-0.42
2019-01-30T03:34:24.268Z,-0.29
2019-01-30T03:36:51.192Z,-0.38
2019-01-30T03:39:18.110Z,-0.46
2019-01-30T03:41:45.056Z,-0.36
2019-01-30T03:44:12.033Z,-0.32
2019-01-30T03:46:38.995Z,-0.28
2019-01-30T03:49:05.997Z,-0.27
2019-01-30T03:51:32.896Z,-0.28
2019-01-30T03:53:59.844Z,-0.29
2019-01-30T03:56:26.778Z,-0.28
2019-01-30T03:58:53.728Z,-0.30
2019-01-30T04:01:26.762Z,-0.33
2019-01-30T04:03:49.520Z,-0.27
2019-01-30T04:06:16.449Z,-0.33
2019-01-30T04:08:43.396Z,-0.51
2019-01-30T04:11:10.330Z,-0.34
2019-01-30T04:13:37.263Z,-0.48
2019-01-30T04:16:04.255Z,-0.30
2019-01-30T04:18:31.175Z,-0.39
2019-01-30T04:20:58.145Z,-0.42
2019-01-30T04:23:25.053Z,-0.38
2019-01-30T04:25:52.000Z,-0.31
2019-01-30T04:28:18.961Z,-0.37
2019-01-30T04:30:45.941Z,-0.38
2019-01-30T04:33:12.856Z,-0.34
2019-01-30T04:35:39.787Z,-0.36
2019-01-30T04:38:06.723Z,-0.37
2019-01-30T04:40:33.686Z,-0.46
2019-01-30T04:43:00.574Z,-0.46
2019-01-30T04:45:27.504Z,-0.51
2019-01-30T04:47:54.383Z,-0.39
2019-01-30T04:50:21.332Z,-0.39
2019-01-30T04:52:48.313Z,-0.38
2019-01-30T04:55:15.550Z,-0.37
2019-01-30T04:57:42.470Z,-0.31
2019-01-30T05:00:11.363Z,-0.31
2019-01-30T05:02:38.296Z,-0.35
2019-01-30T05:05:06.682Z,-0.33
2019-01-30T05:07:33.561Z,-0.33
2019-01-30T05:10:00.537Z,-0.28
2019-01-30T05:12:27.440Z,-0.26
2019-01-30T05:14:54.367Z,-0.16
2019-01-30T05:17:21.319Z,-0.17
2019-01-30T05:19:48.269Z,-0.21
2019-01-30T05:22:15.172Z,-0.32
2019-01-30T05:24:42.084Z,-0.37
2019-01-30T05:27:09.046Z,-0.17
2019-01-30T05:29:35.945Z,-0.10
2019-01-30T05:32:02.885Z,-0.17
2019-01-30T05:34:29.780Z,-0.19
2019-01-30T05:36:56.759Z,-0.15
2019-01-30T05:39:23.648Z,-0.15
2019-01-30T05:41:50.647Z,-0.10
2019-01-30T05:44:17.553Z,-0.10
2019-01-30T05:46:44.540Z,-0.16
2019-01-30T05:49:11.424Z,-0.18
2019-01-30T05:51:38.374Z,-0.19
2019-01-30T05:54:05.284Z,-0.26
2019-01-30T05:56:32.266Z,-0.12
2019-01-30T05:58:59.166Z,-0.19
2019-01-30T06:01:26.092Z,-0.18
2019-01-30T06:03:53.004Z,-0.18
2019-01-30T06:06:19.949Z,-0.19
2019-01-30T06:08:46.873Z,-0.13
2019-01-30T06:11:13.838Z,-0.12
2019-01-30T06:13:40.819Z,-0.15
2019-01-30T06:16:07.728Z,-0.14
2019-01-30T06:18:34.633Z,-0.15
2019-01-30T06:21:01.577Z,-0.15
2019-01-30T06:23:28.469Z,-0.21
2019-01-30T06:25:55.378Z,-0.19
2019-01-30T06:28:22.360Z,-0.12
2019-01-30T06:30:49.282Z,-0.07
2019-01-30T06:33:16.421Z,-0.16
2019-01-30T06:35:43.344Z,-0.15
2019-01-30T06:38:10.307Z,-0.06
2019-01-30T06:40:37.205Z,-0.20
2019-01-30T06:43:04.299Z,-0.20
2019-01-30T06:45:31.182Z,-0.21
2019-01-30T06:47:58.095Z,-0.10
2019-01-30T06:50:25.008Z,-0.15
2019-01-30T06:52:51.945Z,-0.06
2019-01-30T06:55:18.796Z,-0.03
2019-01-30T06:57:45.734Z,-0.05
2019-01-30T07:00:15.659Z,-0.05
2019-01-30T07:02:42.632Z,-0.08
2019-01-30T07:05:09.718Z,-0.03
2019-01-30T07:07:36.627Z,-0.01
2019-01-30T07:10:06.215Z,-0.02
2019-01-30T07:12:33.148Z,0.15
2019-01-30T07:15:00.304Z,0.07
2019-01-30T07:17:27.304Z,0.10
2019-01-30T07:19:55.865Z,0.10
2019-01-30T07:22:22.882Z,0.01
2019-01-30T07:24:49.808Z,0.08
2019-01-30T07:27:18.902Z,-0.01
2019-01-30T07:29:46.985Z,0.05
2019-01-30T07:32:13.872Z,-0.05
2019-01-30T07:34:40.775Z,0.02
2019-01-30T07:37:07.674Z,-0.06
2019-01-30T07:39:34.588Z,0.06
2019-01-30T07:42:01.478Z,0.01
2019-01-30T07:44:28.476Z,-0.03
2019-01-30T07:46:55.643Z,-0.04
2019-01-30T07:49:22.595Z,-0.09
2019-01-30T07:51:49.463Z,-0.11
2019-01-30T07:54:16.375Z,0.00
2019-01-30T07:56:43.247Z,0.03
2019-01-30T07:59:10.170Z,-0.12
2019-01-30T08:01:37.069Z,-0.08
2019-01-30T08:04:04.699Z,0.01
2019-01-30T08:06:31.626Z,0.08
2019-01-30T08:08:58.571Z,0.07
2019-01-30T08:11:25.509Z,0.04
2019-01-30T08:13:52.553Z,0.11
2019-01-30T08:16:21.777Z,0.14
2019-01-30T08:18:48.434Z,0.21
2019-01-30T08:21:15.389Z,0.20
2019-01-30T08:23:42.620Z,0.27
2019-01-30T08:26:09.671Z,0.20
2019-01-30T08:28:39.244Z,0.45
2019-01-30T08:31:07.909Z,0.49
2019-01-30T08:33:34.983Z,0.40
2019-01-30T08:36:01.933Z,0.59
2019-01-30T08:38:28.881Z,0.57
2019-01-30T08:40:56.680Z,0.60
2019-01-30T08:43:23.653Z,0.58
2019-01-30T08:45:50.605Z,0.66
2019-01-30T08:48:17.554Z,0.75
2019-01-30T08:50:44.480Z,0.77
2019-01-30T08:53:11.381Z,0.83
2019-01-30T08:55:38.317Z,0.86
2019-01-30T08:58:05.294Z,0.94
2019-01-30T09:00:32.272Z,0.80
2019-01-30T09:02:59.653Z,0.89
2019-01-30T09:05:26.851Z,1.03
2019-01-30T09:07:54.462Z,0.93
2019-01-30T09:10:23.068Z,0.95
2019-01-30T09:12:49.947Z,0.98
2019-01-30T09:15:18.567Z,1.00
2019-01-30T09:17:45.646Z,0.95
2019-01-30T09:20:14.604Z,1.08
2019-01-30T09:22:41.479Z,1.15
2019-01-30T09:25:10.092Z,1.11
2019-01-30T09:27:37.017Z,1.15
2019-01-30T09:30:07.355Z,1.23
2019-01-30T09:32:34.280Z,1.22
2019-01-30T09:35:01.496Z,1.32
2019-01-30T09:37:28.446Z,1.40
2019-01-30T09:39:55.426Z,1.38
2019-01-30T09:42:22.890Z,1.48
2019-01-30T09:44:49.983Z,1.41
2019-01-30T09:47:16.913Z,1.51
2019-01-30T09:49:43.877Z,1.55
2019-01-30T09:52:10.820Z,1.59
2019-01-30T09:54:37.757Z,1.50
2019-01-30T09:57:04.697Z,1.40
2019-01-30T09:59:31.629Z,1.38
2019-01-30T10:01:58.587Z,1.42
2019-01-30T10:04:25.484Z,1.36
2019-01-30T10:06:52.411Z,1.44
2019-01-30T10:09:19.341Z,1.47
2019-01-30T10:11:46.332Z,1.39
2019-01-30T10:14:13.385Z,1.41
2019-01-30T10:16:40.335Z,1.43
2019-01-30T10:19:07.354Z,1.41
2019-01-30T10:21:34.372Z,1.35
2019-01-30T10:24:01.282Z,1.37
2019-01-30T10:26:29.503Z,1.34
2019-01-30T10:28:56.439Z,1.30
2019-01-30T10:31:23.433Z,1.39
2019-01-30T10:33:50.333Z,1.41
2019-01-30T10:36:17.240Z,1.45
2019-01-30T10:38:44.168Z,1.32
2019-01-30T10:41:11.069Z,1.48
2019-01-30T10:43:38.011Z,1.38
2019-01-30T10:46:04.903Z,1.43
2019-01-30T10:48:31.918Z,1.45
2019-01-30T10:50:58.834Z,1.44
2019-01-30T10:53:25.769Z,1.47
2019-01-30T10:55:52.668Z,1.44
2019-01-30T10:58:19.582Z,1.43
2019-01-30T11:00:51.170Z,1.27
2019-01-30T11:03:18.430Z,1.25
2019-01-30T11:05:45.478Z,1.15
2019-01-30T11:08:12.435Z,1.15
2019-01-30T11:10:39.353Z,1.09
2019-01-30T11:13:06.483Z,1.11
2019-01-30T11:15:33.387Z,1.07
2019-01-30T11:18:00.505Z,0.99
2019-01-30T11:20:27.721Z,0.98
2019-01-30T11:22:54.649Z,1.01
2019-01-30T11:25:27.776Z,1.03
2019-01-30T11:27:54.844Z,1.09
2019-01-30T11:30:21.822Z,1.17
2019-01-30T11:32:48.763Z,1.10
2019-01-30T11:35:15.683Z,1.29
2019-01-30T11:37:42.751Z,1.31
2019-01-30T11:40:11.799Z,1.21
2019-01-30T11:42:38.730Z,1.19
2019-01-30T11:45:09.566Z,1.13
2019-01-30T11:47:36.496Z,1.08
2019-01-30T11:50:04.517Z,1.14
2019-01-30T11:52:31.458Z,1.12
2019-01-30T11:54:58.348Z,1.04
2019-01-30T11:57:25.503Z,1.02
2019-01-30T11:59:52.443Z,1.03
2019-01-30T12:02:19.363Z,1.03
2019-01-30T12:04:46.364Z,1.06
2019-01-30T12:07:13.385Z,0.83
2019-01-30T12:09:40.406Z,0.66
2019-01-30T12:12:07.305Z,0.62
2019-01-30T12:14:34.263Z,0.64
2019-01-30T12:17:01.180Z,0.58
2019-01-30T12:19:28.119Z,0.55
2019-01-30T12:21:56.328Z,0.56
2019-01-30T12:24:23.238Z,0.50
2019-01-30T12:26:50.131Z,0.44
2019-01-30T12:29:17.126Z,0.58
2019-01-30T12:31:44.047Z,0.53
2019-01-30T12:34:11.069Z,0.50
2019-01-30T12:36:38.002Z,0.57
2019-01-30T12:39:08.633Z,0.56
2019-01-30T12:41:35.895Z,0.54
2019-01-30T12:44:03.913Z,0.67
2019-01-30T12:46:30.957Z,0.59
2019-01-30T12:48:57.997Z,0.51
2019-01-30T12:51:24.922Z,0.62
2019-01-30T12:53:51.892Z,0.53
2019-01-30T12:56:19.224Z,0.55
2019-01-30T12:58:46.147Z,0.62
2019-01-30T13:01:13.141Z,0.61
2019-01-30T13:03:40.060Z,0.55
2019-01-30T13:06:07.074Z,0.55
2019-01-30T13:08:33.951Z,0.64
2019-01-30T13:11:00.953Z,0.81
2019-01-30T13:13:27.848Z,0.77
2019-01-30T13:15:54.789Z,0.71
2019-01-30T13:18:21.805Z,0.71
2019-01-30T13:20:48.743Z,0.67
2019-01-30T13:23:15.651Z,0.75
2019-01-30T13:25:42.575Z,0.77
2019-01-30T13:28:09.582Z,0.72
2019-01-30T13:30:38.723Z,0.81
2019-01-30T13:33:08.084Z,0.79
2019-01-30T13:35:35.087Z,0.79
2019-01-30T13:38:02.014Z,0.72
2019-01-30T13:40:33.809Z,0.77
2019-01-30T13:43:00.764Z,0.73
2019-01-30T13:45:28.589Z,0.83
2019-01-30T13:47:55.997Z,0.82
2019-01-30T13:50:24.391Z,0.94
2019-01-30T13:52:51.394Z,0.88
2019-01-30T13:55:18.922Z,0.79
2019-01-30T13:57:45.929Z,0.64
2019-01-30T14:00:19.034Z,0.73
2019-01-30T14:02:46.027Z,0.80
2019-01-30T14:05:13.587Z,0.78
2019-01-30T14:07:40.592Z,0.78
2019-01-30T14:10:07.829Z,0.71
2019-01-30T14:12:34.738Z,0.71
2019-01-30T14:15:01.844Z,0.77
2019-01-30T14:17:28.803Z,0.72
2019-01-30T14:19:55.730Z,0.73
2019-01-30T14:22:22.769Z,0.85
2019-01-30T14:24:49.741Z,0.79
2019-01-30T14:27:17.236Z,0.82
2019-01-30T14:29:44.145Z,0.77
2019-01-30T14:32:11.094Z,0.76
2019-01-30T14:34:38.061Z,0.77
2019-01-30T14:37:05.016Z,0.83
2019-01-30T14:39:32.072Z,0.82
2019-01-30T14:41:58.968Z,0.83
2019-01-30T14:44:26.203Z,0.78
2019-01-30T14:46:53.158Z,0.72
2019-01-30T14:49:20.262Z,0.79
2019-01-30T14:51:47.307Z,0.66
2019-01-30T14:54:14.225Z,0.79
2019-01-30T14:56:41.176Z,0.83
2019-01-30T14:59:08.130Z,0.79
2019-01-30T15:01:35.167Z,0.80
2019-01-30T15:04:02.079Z,0.88
2019-01-30T15:06:29.079Z,0.85
2019-01-30T15:08:55.955Z,0.85
2019-01-30T15:11:22.884Z,0.93
2019-01-30T15:13:49.853Z,1.05
2019-01-30T15:16:16.733Z,0.89
2019-01-30T15:18:43.690Z,1.00
2019-01-30T15:21:10.590Z,0.93
2019-01-30T15:23:37.539Z,1.01
2019-01-30T15:26:04.550Z,0.96
2019-01-30T15:28:31.572Z,0.92
2019-01-30T15:30:58.529Z,1.18
2019-01-30T15:33:25.483Z,1.00
2019-01-30T15:35:52.583Z,0.82
2019-01-30T15:38:20.823Z,0.86
2019-01-30T15:40:47.978Z,0.89
2019-01-30T15:43:14.987Z,0.91
2019-01-30T15:45:41.994Z,0.93
2019-01-30T15:48:08.929Z,1.01
2019-01-30T15:50:36.836Z,1.04
2019-01-30T15:53:07.086Z,0.97
2019-01-30T15:55:34.001Z,0.90
2019-01-30T15:58:03.866Z,1.18
2019-01-30T16:00:33.739Z,1.10
2019-01-30T16:03:00.718Z,0.98
2019-01-30T16:05:27.648Z,0.86
2019-01-30T16:07:54.595Z,0.97
2019-01-30T16:10:21.833Z,0.73
2019-01-30T16:12:48.794Z,0.98
2019-01-30T16:15:22.185Z,0.87
2019-01-30T16:17:49.165Z,0.88
2019-01-30T16:20:16.301Z,0.92
2019-01-30T16:22:43.392Z,0.83
2019-01-30T16:25:10.406Z,0.77
2019-01-30T16:27:37.404Z,0.77
2019-01-30T16:30:07.717Z,0.85
2019-01-30T16:32:34.653Z,0.78
2019-01-30T16:35:01.578Z,0.71
2019-01-30T16:37:28.492Z,0.72
2019-01-30T16:39:55.522Z,0.82
2019-01-30T16:42:22.516Z,0.75
2019-01-30T16:44:49.496Z,0.75
2019-01-30T16:47:16.457Z,0.86
2019-01-30T16:49:43.542Z,0.75
2019-01-30T16:52:10.474Z,0.79
2019-01-30T16:54:37.507Z,0.73
2019-01-30T16:57:04.412Z,0.69
2019-01-30T16:59:31.474Z,0.69
2019-01-30T17:01:58.488Z,0.80
2019-01-30T17:04:25.433Z,0.80
2019-01-30T17:06:52.396Z,0.77
2019-01-30T17:09:19.396Z,0.76
2019-01-30T17:11:46.378Z,0.77
2019-01-30T17:14:13.353Z,0.86
2019-01-30T17:16:40.355Z,0.84
2019-01-30T17:19:07.409Z,0.84
2019-01-30T17:21:34.324Z,0.87
2019-01-30T17:24:01.350Z,0.81
2019-01-30T17:26:28.371Z,0.86
2019-01-30T17:28:55.318Z,0.77
2019-01-30T17:31:28.094Z,0.85
2019-01-30T17:33:55.061Z,0.82
2019-01-30T17:36:22.003Z,0.77
2019-01-30T17:38:49.161Z,0.82
2019-01-30T17:41:16.149Z,0.87
2019-01-30T17:43:43.487Z,0.83
2019-01-30T17:46:10.673Z,0.94
2019-01-30T17:48:38.041Z,0.90
2019-01-30T17:51:05.161Z,1.00
2019-01-30T17:53:32.289Z,1.00
2019-01-30T17:55:59.259Z,0.98
2019-01-30T17:58:26.216Z,0.85
2019-01-30T18:00:58.843Z,1.04
2019-01-30T18:03:25.991Z,0.90
2019-01-30T18:05:52.971Z,0.81
2019-01-30T18:08:19.887Z,0.82
2019-01-30T18:10:47.403Z,0.94
2019-01-30T18:13:14.367Z,0.88
2019-01-30T18:15:41.345Z,0.82
2019-01-30T18:18:08.268Z,0.84
2019-01-30T18:20:35.304Z,0.81
2019-01-30T18:23:02.422Z,0.81
2019-01-30T18:25:29.866Z,0.84
2019-01-30T18:27:56.770Z,0.81
2019-01-30T18:30:23.849Z,0.76
2019-01-30T18:32:50.975Z,0.84
2019-01-30T18:35:18.074Z,0.88
2019-01-30T18:37:45.222Z,0.94
2019-01-30T18:40:14.848Z,0.90
2019-01-30T18:42:41.919Z,0.97
2019-01-30T18:45:11.203Z,0.90
2019-01-30T18:47:38.333Z,0.83
2019-01-30T18:50:09.707Z,0.99
2019-01-30T18:52:36.727Z,0.94
2019-01-30T18:55:05.222Z,0.80
2019-01-30T18:57:32.238Z,0.82
2019-01-30T18:59:59.655Z,1.00
2019-01-30T19:02:27.254Z,0.70
2019-01-30T19:04:54.736Z,0.89
2019-01-30T19:07:24.292Z,0.89
2019-01-30T19:09:51.501Z,0.86
2019-01-30T19:12:18.518Z,0.85
2019-01-30T19:14:46.945Z,0.88
2019-01-30T19:17:16.903Z,0.83
2019-01-30T19:19:43.310Z,0.79
2019-01-30T19:22:10.509Z,0.75
2019-01-30T19:24:37.555Z,0.80
2019-01-30T19:27:04.607Z,0.75
2019-01-30T19:29:32.632Z,0.77
2019-01-30T19:32:00.174Z,0.80
2019-01-30T19:34:27.294Z,0.71
2019-01-30T19:37:03.194Z,0.66
2019-01-30T19:39:23.093Z,0.62
2019-01-30T19:41:50.387Z,0.65
2019-01-30T19:44:17.390Z,0.66
2019-01-30T19:46:44.333Z,0.72
2019-01-30T19:49:11.239Z,0.79
2019-01-30T19:51:38.244Z,0.70
2019-01-30T19:54:05.289Z,0.73
2019-01-30T19:56:32.295Z,0.69
2019-01-30T19:58:59.397Z,0.53
2019-01-30T20:01:36.052Z,0.46
2019-01-30T20:03:55.160Z,0.46
2019-01-30T20:06:22.522Z,0.38
2019-01-30T20:08:50.011Z,0.36
2019-01-30T20:11:17.271Z,0.39
2019-01-30T20:13:44.736Z,0.52
2019-01-30T20:16:12.119Z,0.43
2019-01-30T20:18:39.754Z,0.51
2019-01-30T20:21:07.119Z,0.53
2019-01-30T20:23:34.023Z,0.43
2019-01-30T20:26:02.194Z,0.51
2019-01-30T20:28:30.560Z,0.58
2019-01-30T20:30:57.627Z,0.56
2019-01-30T20:33:24.802Z,0.61
2019-01-30T20:35:51.763Z,0.57
2019-01-30T20:38:18.949Z,0.57
2019-01-30T20:40:46.195Z,0.43
2019-01-30T20:43:13.217Z,0.50
2019-01-30T20:45:40.228Z,0.45
2019-01-30T20:48:07.477Z,0.53
2019-01-30T20:50:34.682Z,0.43
2019-01-30T20:53:01.692Z,0.56
2019-01-30T20:55:28.721Z,0.60
2019-01-30T20:57:55.751Z,0.59
2019-01-30T21:00:30.949Z,0.51
2019-01-30T21:02:58.372Z,0.36
2019-01-30T21:05:25.611Z,0.55
2019-01-30T21:07:52.762Z,0.46
2019-01-30T21:10:25.571Z,0.33
2019-01-30T21:12:52.530Z,0.33
2019-01-30T21:15:20.356Z,0.55
2019-01-30T21:17:47.412Z,0.52
2019-01-30T21:20:14.489Z,0.34
2019-01-30T21:22:41.489Z,0.35
2019-01-30T21:25:12.336Z,0.35
2019-01-30T21:27:39.397Z,0.26
2019-01-30T21:30:07.724Z,0.53
2019-01-30T21:32:34.704Z,0.44
2019-01-30T21:35:01.677Z,0.45
2019-01-30T21:37:28.654Z,0.37
2019-01-30T21:39:55.562Z,0.40
2019-01-30T21:42:22.741Z,0.31
2019-01-30T21:44:49.656Z,0.39
2019-01-30T21:47:17.107Z,0.39
2019-01-30T21:49:44.478Z,0.43
2019-01-30T21:52:11.573Z,0.38
2019-01-30T21:54:38.514Z,0.22
2019-01-30T21:57:05.661Z,0.25
2019-01-30T21:59:32.814Z,0.33
2019-01-30T22:02:08.017Z,0.29
2019-01-30T22:04:29.477Z,0.37
2019-01-30T22:06:56.526Z,0.29
2019-01-30T22:09:23.526Z,0.38
2019-01-30T22:11:50.516Z,0.56
2019-01-30T22:14:17.493Z,0.45
2019-01-30T22:16:44.512Z,0.35
2019-01-30T22:19:11.602Z,0.33
2019-01-30T22:21:38.492Z,0.39
2019-01-30T22:24:06.062Z,0.36
2019-01-30T22:26:33.331Z,0.25
2019-01-30T22:29:02.651Z,0.32
2019-01-30T22:31:29.221Z,0.31
2019-01-30T22:33:56.194Z,0.32
2019-01-30T22:36:23.103Z,0.35
2019-01-30T22:38:50.910Z,0.57
2019-01-30T22:41:17.994Z,0.42
2019-01-30T22:43:44.988Z,0.31
2019-01-30T22:46:12.152Z,0.37
2019-01-30T22:48:39.150Z,0.46
2019-01-30T22:51:06.040Z,0.40
2019-01-30T22:53:33.016Z,0.45
2019-01-30T22:56:00.138Z,0.37
2019-01-30T22:58:27.318Z,0.25
2019-01-30T23:01:32.249Z,0.29
2019-01-30T23:04:43.408Z,0.36
2019-01-30T23:07:47.780Z,0.38
2019-01-30T23:10:51.570Z,0.38
2019-01-30T23:13:53.765Z,0.43
2019-01-30T23:17:01.127Z,0.37
2019-01-30T23:19:54.020Z,0.34
2019-01-30T23:23:09.033Z,0.30
2019-01-30T23:25:47.707Z,0.37
2019-01-30T23:28:27.989Z,0.32
2019-01-30T23:31:50.804Z,0.21
2019-01-30T23:35:07.753Z,0.32
2019-01-30T23:37:59.055Z,0.35
2019-01-30T23:41:00.087Z,0.31
2019-01-30T23:44:30.715Z,0.22
2019-01-30T23:47:37.437Z,0.20
2019-01-30T23:50:41.892Z,0.26
2019-01-30T23:53:27.126Z,0.29
2019-01-30T23:56:38.323Z,0.27
2019-01-30T23:59:42.812Z,0.40
